createdAt,value
2019-02-06T00:07:03.139Z,101477.58
2019-02-06T00:11:59.060Z,101468.87
2019-02-06T00:16:55.138Z,101469.23
2019-02-06T00:21:51.143Z,101469.31
2019-02-06T00:26:47.043Z,101462.02
2019-02-06T00:31:42.953Z,101466.52
2019-02-06T00:36:38.948Z,101470.28
2019-02-06T00:41:34.848Z,101465.09
2019-02-06T00:51:48.198Z,101459.91
2019-02-06T00:56:44.189Z,101455.66
2019-02-06T01:01:40.131Z,101460.13
2019-02-06T01:06:36.637Z,101450.36
2019-02-06T01:11:32.540Z,101442.33
2019-02-06T01:16:28.475Z,101444.11
2019-02-06T01:21:24.520Z,101441.28
2019-02-06T01:26:20.591Z,101441.04
2019-02-06T01:36:20.269Z,101434.56
2019-02-06T01:41:16.174Z,101431.61
2019-02-06T01:46:12.089Z,101432.08
2019-02-06T01:51:08.138Z,101423.13
2019-02-06T01:56:04.043Z,101420.88
2019-02-06T02:01:00.042Z,101414.88
2019-02-06T02:06:02.274Z,101414.64
2019-02-06T02:10:53.964Z,101416.30
2019-02-06T02:15:49.971Z,101411.80
2019-02-06T02:20:45.900Z,101415.20
2019-02-06T02:25:41.802Z,101414.16
2019-02-06T02:35:41.757Z,101401.56
2019-02-06T02:40:37.672Z,101400.95
2019-02-06T02:45:33.767Z,101389.17
2019-02-06T02:50:29.662Z,101372.57
2019-02-06T02:55:25.677Z,101373.30
2019-02-06T03:00:41.820Z,101373.38
2019-02-06T03:05:37.806Z,101367.52
2019-02-06T03:10:33.724Z,101369.41
2019-02-06T03:15:31.610Z,101358.32
2019-02-06T03:20:28.515Z,101350.54
2019-02-06T03:25:24.560Z,101332.52
2019-02-06T03:30:20.464Z,101326.89
2019-02-06T03:35:16.553Z,101329.93
2019-02-06T03:40:32.317Z,101317.91
2019-02-06T03:45:28.713Z,101318.38
2019-02-06T03:50:24.601Z,101309.92
2019-02-06T03:55:20.500Z,101298.61
2019-02-06T04:00:38.180Z,101294.82
2019-02-06T04:05:34.280Z,101284.67
2019-02-06T04:10:30.215Z,101276.89
2019-02-06T04:15:26.348Z,101273.02
2019-02-06T04:20:22.243Z,101268.39
2019-02-06T04:25:18.360Z,101259.93
2019-02-06T04:30:34.227Z,101249.56
2019-02-06T04:35:30.121Z,101241.47
2019-02-06T04:40:26.026Z,101234.69
2019-02-06T04:45:21.930Z,101227.00
2019-02-06T04:50:17.898Z,101218.64
2019-02-06T04:55:55.452Z,101224.95
2019-02-06T05:00:51.350Z,101224.70
2019-02-06T05:05:47.265Z,101229.95
2019-02-06T05:10:43.182Z,101220.74
2019-02-06T05:15:39.116Z,101213.55
2019-02-06T05:21:16.739Z,101200.00
2019-02-06T05:26:12.656Z,101201.59
2019-02-06T05:31:08.562Z,101208.01
2019-02-06T05:36:04.561Z,101202.61
2019-02-06T05:41:00.467Z,101191.97
2019-02-06T05:45:56.472Z,101194.77
2019-02-06T05:50:52.400Z,101197.86
2019-02-06T05:55:48.309Z,101197.05
2019-02-06T06:00:46.102Z,101193.52
2019-02-06T06:05:42.436Z,101193.64
2019-02-06T06:10:38.543Z,101183.96
2019-02-06T06:15:34.467Z,101180.81
2019-02-06T06:20:30.373Z,101180.59
2019-02-06T06:25:26.296Z,101168.27
2019-02-06T06:30:22.375Z,101155.59
2019-02-06T06:35:18.444Z,101152.17
2019-02-06T06:40:16.963Z,101146.45
2019-02-06T06:45:19.003Z,101145.65
2019-02-06T06:50:17.290Z,101155.28
2019-02-06T06:55:14.488Z,101152.63
2019-02-06T07:00:14.184Z,101159.08
2019-02-06T07:05:12.493Z,101148.87
2019-02-06T07:10:13.686Z,101143.88
2019-02-06T07:15:18.244Z,101148.83
2019-02-06T07:20:16.220Z,101148.83
2019-02-06T07:25:14.723Z,101150.34
2019-02-06T07:30:20.045Z,101150.65
2019-02-06T07:35:15.939Z,101149.52
2019-02-06T07:40:13.638Z,101148.47
2019-02-06T07:45:11.736Z,101143.83
2019-02-06T07:50:29.696Z,101147.48
2019-02-06T07:55:26.174Z,101137.53
2019-02-06T08:00:22.287Z,101133.00
2019-02-06T08:05:19.379Z,101142.33
2019-02-06T08:10:20.554Z,101140.62
2019-02-06T08:15:17.484Z,101145.82
2019-02-06T08:20:18.650Z,101129.98
2019-02-06T08:25:16.542Z,101127.23
2019-02-06T08:30:18.676Z,101120.66
2019-02-06T08:35:14.638Z,101119.53
2019-02-06T08:40:13.952Z,101119.53
2019-02-06T08:45:15.233Z,101123.09
2019-02-06T08:50:17.058Z,101121.14
2019-02-06T08:55:18.311Z,101110.61
2019-02-06T09:00:20.763Z,101108.61
2019-02-06T09:05:16.858Z,101098.46
2019-02-06T09:10:16.264Z,101089.80
2019-02-06T09:15:12.257Z,101085.67
2019-02-06T09:20:11.768Z,101085.00
2019-02-06T09:25:11.940Z,101097.02
2019-02-06T09:30:22.020Z,101094.84
2019-02-06T09:35:18.321Z,101095.38
2019-02-06T09:40:17.234Z,101090.31
2019-02-06T09:45:14.330Z,101093.99
2019-02-06T09:50:13.987Z,101090.31
2019-02-06T09:55:10.527Z,101093.48
2019-02-06T10:00:12.945Z,101093.25
2019-02-06T10:05:09.239Z,101087.78
2019-02-06T10:10:09.350Z,101088.56
2019-02-06T10:15:38.028Z,101093.61
2019-02-06T10:20:36.712Z,101094.09
2019-02-06T10:25:32.897Z,101094.50
2019-02-06T10:30:40.585Z,101092.39
2019-02-06T10:35:36.563Z,101098.44
2019-02-06T10:40:32.548Z,101092.34
2019-02-06T10:45:28.433Z,101087.83
2019-02-06T10:50:52.578Z,101085.58
2019-02-06T10:55:48.576Z,101085.25
2019-02-06T11:00:53.294Z,101076.74
2019-02-06T11:05:49.419Z,101065.11
2019-02-06T11:10:45.518Z,101058.16
2019-02-06T11:15:41.944Z,101052.94
2019-02-06T11:20:38.657Z,101045.09
2019-02-06T11:25:35.198Z,101042.77
2019-02-06T11:30:33.604Z,101042.47
2019-02-06T11:35:29.497Z,101038.55
2019-02-06T11:40:25.506Z,101033.44
2019-02-06T11:45:32.265Z,101023.13
2019-02-06T11:55:39.482Z,101010.38
2019-02-06T12:00:41.458Z,101012.32
2019-02-06T12:05:37.360Z,101001.34
2019-02-06T12:10:33.450Z,100995.02
2019-02-06T12:15:29.464Z,100986.80
2019-02-06T12:20:25.451Z,100988.52
2019-02-06T12:25:21.429Z,100988.34
2019-02-06T12:30:39.944Z,100985.07
2019-02-06T12:35:36.208Z,100969.00
2019-02-06T12:40:32.200Z,100961.80
2019-02-06T12:45:28.182Z,100953.48
2019-02-06T12:50:24.472Z,100946.42
2019-02-06T12:55:29.316Z,100936.59
2019-02-06T13:00:30.547Z,100934.38
2019-02-06T13:05:26.648Z,100932.16
2019-02-06T13:10:34.443Z,100931.50
2019-02-06T13:15:31.524Z,100917.19
2019-02-06T13:20:34.979Z,100920.00
2019-02-06T13:25:36.944Z,100920.10
2019-02-06T13:30:36.907Z,100907.96
2019-02-06T13:35:37.787Z,100898.78
2019-02-06T13:40:45.051Z,100895.25
2019-02-06T13:45:36.669Z,100897.31
2019-02-06T13:50:33.414Z,100888.13
2019-02-06T13:55:30.566Z,100889.92
2019-02-06T14:00:32.017Z,100879.59
2019-02-06T14:05:29.808Z,100873.30
2019-02-06T14:10:27.576Z,100864.91
2019-02-06T14:15:26.976Z,100864.92
2019-02-06T14:20:23.041Z,100870.28
2019-02-06T14:25:22.792Z,100867.41
2019-02-06T14:30:28.292Z,100853.42
2019-02-06T14:35:37.393Z,100851.84
2019-02-06T14:41:08.222Z,100841.38
2019-02-06T14:46:24.686Z,100822.34
2019-02-06T14:51:58.499Z,100816.89
2019-02-06T14:57:07.401Z,100819.09
2019-02-06T15:02:22.204Z,100809.91
2019-02-06T15:07:39.888Z,100800.48
2019-02-06T15:12:57.124Z,100807.00
2019-02-06T15:18:17.527Z,100806.11
2019-02-06T15:23:32.939Z,100799.96
2019-02-06T15:28:30.677Z,100803.90
2019-02-06T15:33:49.120Z,100805.08
2019-02-06T15:38:51.454Z,100794.44
2019-02-06T15:43:57.407Z,100793.73
2019-02-06T15:49:00.175Z,100788.15
2019-02-06T15:54:23.314Z,100781.83
2019-02-06T15:59:40.084Z,100769.27
2019-02-06T16:04:53.392Z,100770.72
2019-02-06T16:10:11.043Z,100764.62
2019-02-06T16:15:19.212Z,100769.35
2019-02-06T16:20:30.776Z,100767.38
2019-02-06T16:25:33.205Z,100770.42
2019-02-06T16:30:47.948Z,100761.76
2019-02-06T16:36:08.476Z,100758.28
2019-02-06T16:41:11.213Z,100741.44
2019-02-06T16:46:44.769Z,100735.50
2019-02-06T16:51:44.460Z,100741.47
2019-02-06T16:56:47.894Z,100737.48
2019-02-06T17:02:21.335Z,100741.04
2019-02-06T17:07:23.778Z,100738.36
2019-02-06T17:12:32.727Z,100731.77
2019-02-06T17:17:38.188Z,100731.80
2019-02-06T17:22:52.644Z,100729.46
2019-02-06T17:28:03.936Z,100719.28
2019-02-06T17:33:26.750Z,100715.50
2019-02-06T17:38:33.281Z,100713.06
2019-02-06T17:43:39.681Z,100714.94
2019-02-06T17:48:43.137Z,100715.73
2019-02-06T17:53:43.028Z,100712.27
2019-02-06T17:58:39.030Z,100701.95
2019-02-06T18:03:38.738Z,100696.89
2019-02-06T18:08:36.785Z,100688.87
2019-02-06T18:13:32.785Z,100695.44
2019-02-06T18:18:28.723Z,100674.44
2019-02-06T18:23:24.777Z,100673.42
2019-02-06T18:28:20.672Z,100664.91
2019-02-06T18:33:18.739Z,100663.48
2019-02-06T18:38:14.364Z,100661.38
2019-02-06T18:43:10.350Z,100666.36
2019-02-06T18:48:08.385Z,100670.22
2019-02-06T18:53:05.412Z,100663.99
2019-02-06T18:58:01.800Z,100660.31
2019-02-06T19:02:57.984Z,100665.28
2019-02-06T19:07:54.034Z,100660.70
2019-02-06T19:12:50.871Z,100664.14
2019-02-06T19:17:47.368Z,100665.48
2019-02-06T19:22:43.364Z,100660.02
2019-02-06T19:27:39.355Z,100644.04
2019-02-06T19:32:38.452Z,100640.59
2019-02-06T19:37:35.178Z,100637.50
2019-02-06T19:42:31.312Z,100628.84
2019-02-06T19:47:30.174Z,100618.37
2019-02-06T19:52:27.708Z,100611.08
2019-02-06T19:57:26.086Z,100610.45
2019-02-06T20:02:24.192Z,100606.67
2019-02-06T20:07:20.860Z,100592.48
2019-02-06T20:12:21.018Z,100599.66
2019-02-06T20:17:17.011Z,100592.64
2019-02-06T20:22:12.906Z,100595.16
2019-02-06T20:27:08.788Z,100586.86
2019-02-06T20:32:04.875Z,100585.98
2019-02-06T20:37:00.764Z,100576.36
2019-02-06T20:41:56.653Z,100578.06
2019-02-06T20:46:52.571Z,100571.75
2019-02-06T20:51:55.082Z,100574.86
2019-02-06T20:56:53.153Z,100577.13
2019-02-06T21:01:49.145Z,100549.39
2019-02-06T21:06:45.160Z,100553.08
2019-02-06T21:11:41.173Z,100548.20
2019-02-06T21:16:37.533Z,100538.65
2019-02-06T21:21:33.420Z,100549.06
2019-02-06T21:26:29.548Z,100545.54
2019-02-06T21:31:25.511Z,100536.74
2019-02-06T21:36:22.175Z,100531.81
2019-02-06T21:41:18.168Z,100527.95
2019-02-06T21:46:15.094Z,100528.29
2019-02-06T21:51:10.986Z,100516.20
2019-02-06T21:56:06.864Z,100515.84
2019-02-06T22:01:03.268Z,100517.27
2019-02-06T22:05:59.160Z,100516.55
2019-02-06T22:10:55.775Z,100496.80
2019-02-06T22:15:51.769Z,100491.36
2019-02-06T22:20:47.734Z,100483.23
2019-02-06T22:25:43.621Z,100470.74
2019-02-06T22:30:39.567Z,100464.00
2019-02-06T22:35:35.706Z,100464.48
2019-02-06T22:40:31.691Z,100471.66
2019-02-06T22:45:27.807Z,100464.83
2019-02-06T22:50:27.941Z,100460.77
2019-02-06T22:55:24.434Z,100455.47
2019-02-06T23:00:46.213Z,100448.55
2019-02-06T23:05:42.110Z,100446.67
2019-02-06T23:10:38.061Z,100447.08
2019-02-06T23:15:34.049Z,100420.64
2019-02-06T23:20:29.964Z,100424.30
2019-02-06T23:25:25.847Z,100427.80
2019-02-06T23:30:21.862Z,100410.19
2019-02-06T23:35:17.720Z,100416.48
2019-02-06T23:40:14.911Z,100403.03
2019-02-06T23:45:10.901Z,100391.88
2019-02-06T23:50:12.580Z,100378.48
2019-02-06T23:55:08.568Z,100374.97
